Time;durP1;ratioP1;P1;durP2;ratioP2;P2;SDS_P1;SDS_P2;PMS_P1;PMS_P2;Temp;Humidity;BMP_temperature;BMP_pressure;BME280_temperature;BME280_humidity;BME280_pressure;Samples;Min_cycle;Max_cycle;Signal;HPM_P1;HPM_P2
2022/05/08 00:00:22;;;;;;;11.57;5.40;;;;;;;;;;5028757;28;20061;-63
2022/05/08 00:02:55;;;;;;;7.50;4.22;;;;;;;;;;5029048;28;20049;-63
2022/05/08 00:05:26;;;;;;;8.00;4.22;;;;;;;;;;5028785;28;20053;-63
2022/05/08 00:07:57;;;;;;;7.78;4.35;;;;;;;;;;4933392;28;20064;-63
2022/05/08 00:10:28;;;;;;;8.57;4.10;;;;;;;;;;5028587;28;20064;-63
2022/05/08 00:12:58;;;;;;;8.10;4.20;;;;;;;;;;4988988;28;20054;-62
2022/05/08 00:15:29;;;;;;;6.93;3.65;;;;;;;;;;5003407;28;20066;-63
2022/05/08 00:18:00;;;;;;;9.55;3.88;;;;;;;;;;4979837;28;20058;-63
2022/05/08 00:20:31;;;;;;;8.75;3.67;;;;;;;;;;5012830;28;20050;-63
2022/05/08 00:23:03;;;;;;;10.07;4.18;;;;;;;;;;4992612;28;20057;-63
2022/05/08 00:25:35;;;;;;;8.48;4.13;;;;;;;;;;4989468;28;20059;-63
2022/05/08 00:28:08;;;;;;;10.43;3.90;;;;;;;;;;4987774;28;20054;-63
2022/05/08 00:30:39;;;;;;;7.70;3.30;;;;;;;;;;4984864;28;20436;-64
2022/05/08 00:33:10;;;;;;;7.80;3.83;;;;;;;;;;4992812;28;20073;-63
2022/05/08 00:35:41;;;;;;;7.55;3.45;;;;;;;;;;4960526;28;20418;-63
2022/05/08 00:38:12;;;;;;;7.35;3.53;;;;;;;;;;4956652;28;20042;-63
2022/05/08 00:40:42;;;;;;;7.28;3.47;;;;;;;;;;4931096;29;20056;-63
2022/05/08 00:43:32;;;;;;;7.60;3.45;;;;;;;;;;4916016;29;20067;-63
2022/05/08 00:46:11;;;;;;;7.40;4.00;;;;;;;;;;4931387;29;21056;-63
2022/05/08 00:48:46;;;;;;;7.35;3.47;;;;;;;;;;4900856;29;20056;-63
2022/05/08 00:51:17;;;;;;;6.90;3.42;;;;;;;;;;4884030;29;20445;-63
2022/05/08 00:53:51;;;;;;;11.02;4.20;;;;;;;;;;4915486;29;20056;-63
2022/05/08 00:56:22;;;;;;;9.07;4.57;;;;;;;;;;4927270;28;20055;-63
2022/05/08 00:58:54;;;;;;;10.07;3.50;;;;;;;;;;4972933;28;20411;-63
2022/05/08 01:01:25;;;;;;;8.50;4.57;;;;;;;;;;4991133;28;20050;-63
2022/05/08 01:03:55;;;;;;;8.18;4.68;;;;;;;;;;5008033;28;20057;-63
2022/05/08 01:06:27;;;;;;;9.82;5.25;;;;;;;;;;5011771;28;20062;-63
2022/05/08 01:08:58;;;;;;;9.15;4.55;;;;;;;;;;5012078;28;20057;-63
2022/05/08 01:11:29;;;;;;;10.98;4.80;;;;;;;;;;5011563;28;20049;-63
2022/05/08 01:13:59;;;;;;;9.45;5.03;;;;;;;;;;5011724;28;20102;-63
2022/05/08 01:16:30;;;;;;;10.38;4.47;;;;;;;;;;5041854;28;20080;-63
2022/05/08 01:19:01;;;;;;;8.52;4.45;;;;;;;;;;5051206;28;20051;-63
2022/05/08 01:21:41;;;;;;;10.35;5.10;;;;;;;;;;5071185;28;20061;-63
2022/05/08 01:24:21;;;;;;;10.95;4.00;;;;;;;;;;5071111;28;20381;-63
2022/05/08 01:26:52;;;;;;;9.98;4.85;;;;;;;;;;5071062;28;20520;-63
2022/05/08 01:29:23;;;;;;;13.57;4.55;;;;;;;;;;5071272;28;20055;-63
2022/05/08 01:31:53;;;;;;;9.68;3.85;;;;;;;;;;5017643;28;20405;-63
2022/05/08 01:34:24;;;;;;;8.23;4.65;;;;;;;;;;5017705;28;20049;-63
2022/05/08 01:36:55;;;;;;;12.10;5.18;;;;;;;;;;4985258;28;20045;-62
2022/05/08 01:39:26;;;;;;;12.48;4.35;;;;;;;;;;5050988;28;20453;-63
2022/05/08 01:41:57;;;;;;;8.50;4.50;;;;;;;;;;5031050;28;20065;-62
2022/05/08 01:44:27;;;;;;;8.27;4.00;;;;;;;;;;5030853;28;20591;-62
2022/05/08 01:49:47;;;;;;;11.85;4.93;;;;;;;;;;5030996;28;20057;-63
2022/05/08 01:52:17;;;;;;;10.23;5.68;;;;;;;;;;5030614;28;20045;-63
2022/05/08 01:54:48;;;;;;;9.02;5.72;;;;;;;;;;5026640;28;20057;-63
2022/05/08 01:57:19;;;;;;;10.95;6.13;;;;;;;;;;5030561;28;20057;-63
2022/05/08 01:59:49;;;;;;;9.55;5.57;;;;;;;;;;5030629;28;20505;-63
2022/05/08 02:02:20;;;;;;;9.77;5.15;;;;;;;;;;5014079;28;20068;-63
2022/05/08 02:04:51;;;;;;;11.45;5.50;;;;;;;;;;5030684;28;20061;-64
2022/05/08 02:07:22;;;;;;;10.90;4.60;;;;;;;;;;5030447;28;20053;-63
2022/05/08 02:09:54;;;;;;;9.02;6.22;;;;;;;;;;5010496;28;20060;-63
2022/05/08 02:12:24;;;;;;;9.85;5.25;;;;;;;;;;5050312;28;20060;-63
2022/05/08 02:14:55;;;;;;;11.68;4.03;;;;;;;;;;5017439;28;20405;-63
2022/05/08 02:17:26;;;;;;;11.00;5.82;;;;;;;;;;5016729;28;20056;-63
2022/05/08 02:19:57;;;;;;;10.48;5.38;;;;;;;;;;5077123;28;20052;-63
2022/05/08 02:22:28;;;;;;;13.02;5.68;;;;;;;;;;5029987;28;20048;-64
2022/05/08 02:24:58;;;;;;;11.35;4.97;;;;;;;;;;4990681;28;20066;-63
2022/05/08 02:27:39;;;;;;;12.48;5.57;;;;;;;;;;4974711;28;20426;-63
2022/05/08 02:30:12;;;;;;;10.93;6.00;;;;;;;;;;4970470;28;20056;-62
2022/05/08 02:32:43;;;;;;;11.25;4.32;;;;;;;;;;4990543;28;20430;-62
2022/05/08 02:35:14;;;;;;;11.70;4.82;;;;;;;;;;4975160;28;20454;-63
2022/05/08 02:37:45;;;;;;;11.30;5.38;;;;;;;;;;4989394;28;20051;-63
2022/05/08 02:40:16;;;;;;;9.48;5.32;;;;;;;;;;4974228;28;20065;-63
2022/05/08 02:42:47;;;;;;;10.40;4.82;;;;;;;;;;4990628;28;20063;-63
2022/05/08 02:45:18;;;;;;;10.48;5.28;;;;;;;;;;4990372;28;20098;-63
2022/05/08 02:47:49;;;;;;;11.48;5.55;;;;;;;;;;4974284;28;20055;-63
2022/05/08 02:50:20;;;;;;;11.10;5.30;;;;;;;;;;4990320;28;20055;-63
2022/05/08 02:52:51;;;;;;;9.15;4.78;;;;;;;;;;4970457;28;20427;-63
2022/05/08 03:01:00;;;;;;;14.70;6.53;;;;;;;;;;5020504;28;20061;-63
2022/05/08 03:03:31;;;;;;;14.30;7.13;;;;;;;;;;4998708;28;20060;-63
2022/05/08 03:06:02;;;;;;;12.48;6.88;;;;;;;;;;5033159;28;20084;-63
2022/05/08 03:08:33;;;;;;;14.95;6.63;;;;;;;;;;4999937;28;20060;-63
2022/05/08 03:13:59;;;;;;;18.00;7.57;;;;;;;;;;4931817;29;20067;-63
2022/05/08 03:16:29;;;;;;;12.13;5.82;;;;;;;;;;4900124;29;20447;-63
2022/05/08 03:19:00;;;;;;;12.20;6.50;;;;;;;;;;4932233;29;20055;-63
2022/05/08 03:21:32;;;;;;;14.02;6.85;;;;;;;;;;4931801;29;20056;-63
2022/05/08 03:24:03;;;;;;;13.07;6.15;;;;;;;;;;4931831;29;20451;-63
2022/05/08 03:26:36;;;;;;;13.82;6.47;;;;;;;;;;4931941;29;20051;-63
2022/05/08 03:29:07;;;;;;;10.63;5.28;;;;;;;;;;4932060;29;20504;-63
2022/05/08 03:31:39;;;;;;;14.45;6.40;;;;;;;;;;4950288;29;20095;-63
2022/05/08 03:34:09;;;;;;;14.20;6.28;;;;;;;;;;4950898;29;20043;-63
2022/05/08 03:36:41;;;;;;;14.05;6.60;;;;;;;;;;4919245;29;20495;-63
2022/05/08 03:39:11;;;;;;;17.45;7.95;;;;;;;;;;4951122;29;20125;-63
2022/05/08 03:41:42;;;;;;;18.35;7.28;;;;;;;;;;4951084;29;20550;-63
2022/05/08 03:44:13;;;;;;;20.33;8.38;;;;;;;;;;4951130;29;20059;-63
2022/05/08 03:46:43;;;;;;;19.85;8.32;;;;;;;;;;4919080;29;20051;-63
2022/05/08 03:49:14;;;;;;;24.27;8.35;;;;;;;;;;4978821;28;20513;-63
2022/05/08 03:51:45;;;;;;;17.23;8.45;;;;;;;;;;5057156;28;20047;-63
2022/05/08 03:54:15;;;;;;;20.50;8.15;;;;;;;;;;5111804;28;20043;-63
2022/05/08 03:56:46;;;;;;;18.55;8.73;;;;;;;;;;5075727;28;20058;-63
2022/05/08 03:59:17;;;;;;;16.58;8.05;;;;;;;;;;5111593;28;20050;-63
2022/05/08 04:01:48;;;;;;;18.65;7.93;;;;;;;;;;5111623;28;20062;-63
2022/05/08 04:04:19;;;;;;;16.45;8.02;;;;;;;;;;5094299;28;20039;-63
2022/05/08 04:06:50;;;;;;;18.10;8.40;;;;;;;;;;5059977;28;20063;-63
2022/05/08 04:09:20;;;;;;;16.02;7.43;;;;;;;;;;5093715;28;20039;-63
2022/05/08 04:11:51;;;;;;;18.65;8.23;;;;;;;;;;5111790;28;20043;-63
2022/05/08 04:14:22;;;;;;;16.67;7.68;;;;;;;;;;5111567;28;20495;-63
2022/05/08 04:16:52;;;;;;;23.92;8.77;;;;;;;;;;5058953;28;20064;-63
2022/05/08 04:19:23;;;;;;;18.50;8.68;;;;;;;;;;5111600;28;20043;-63
2022/05/08 04:24:16;;;;;;;17.67;7.35;;;;;;;;;;5075738;28;20055;-63
2022/05/08 04:24:43;;;;;;;18.13;7.82;;;;;;;;;;5111603;28;20048;-63
2022/05/08 04:27:14;;;;;;;17.25;6.97;;;;;;;;;;5059186;28;20117;-63
2022/05/08 04:29:45;;;;;;;15.30;7.82;;;;;;;;;;5048125;28;20053;-63
2022/05/08 04:32:17;;;;;;;16.73;7.32;;;;;;;;;;4982559;28;20087;-63
2022/05/08 04:34:47;;;;;;;17.75;8.63;;;;;;;;;;5008548;28;20061;-63
2022/05/08 04:37:18;;;;;;;17.95;7.90;;;;;;;;;;5008712;28;20433;-63
2022/05/08 04:39:48;;;;;;;18.90;8.38;;;;;;;;;;4992209;28;20608;-63
2022/05/08 04:42:19;;;;;;;17.67;8.65;;;;;;;;;;4976336;28;20053;-63
2022/05/08 04:44:50;;;;;;;16.42;8.50;;;;;;;;;;5008676;28;20061;-63
2022/05/08 04:47:20;;;;;;;16.67;7.70;;;;;;;;;;5008610;28;20054;-63
2022/05/08 04:49:51;;;;;;;14.77;7.45;;;;;;;;;;4976023;28;20058;-63
2022/05/08 04:52:22;;;;;;;16.58;7.47;;;;;;;;;;5008396;28;20158;-63
2022/05/08 04:54:52;;;;;;;14.15;6.45;;;;;;;;;;5008438;28;20053;-63
2022/05/08 04:57:23;;;;;;;17.42;6.82;;;;;;;;;;4975777;28;20058;-63
2022/05/08 04:59:53;;;;;;;15.95;7.35;;;;;;;;;;5014358;28;20053;-63
2022/05/08 05:02:25;;;;;;;15.32;6.70;;;;;;;;;;5038428;28;20063;-63
2022/05/08 05:04:57;;;;;;;14.35;7.55;;;;;;;;;;5071572;28;20040;-63
2022/05/08 05:07:28;;;;;;;15.48;7.25;;;;;;;;;;5071431;28;20052;-63
2022/05/08 05:09:58;;;;;;;17.88;8.10;;;;;;;;;;5071699;28;20052;-63
2022/05/08 05:12:30;;;;;;;14.63;7.82;;;;;;;;;;5094418;28;20052;-62
2022/05/08 05:15:01;;;;;;;16.63;7.80;;;;;;;;;;5079018;28;20056;-63
2022/05/08 05:17:32;;;;;;;16.52;8.50;;;;;;;;;;5114392;28;20047;-63
2022/05/08 05:20:06;;;;;;;16.58;6.75;;;;;;;;;;5062062;28;20048;-64
2022/05/08 05:22:37;;;;;;;15.30;6.32;;;;;;;;;;5114522;28;20376;-63
2022/05/08 05:25:09;;;;;;;17.02;8.05;;;;;;;;;;5114533;28;20040;-63
2022/05/08 05:27:39;;;;;;;13.57;7.55;;;;;;;;;;5062056;28;20055;-63
2022/05/08 05:30:10;;;;;;;16.42;8.23;;;;;;;;;;5051126;28;20097;-63
2022/05/08 05:32:41;;;;;;;16.13;7.72;;;;;;;;;;5034726;28;20068;-63
2022/05/08 05:35:13;;;;;;;15.52;7.20;;;;;;;;;;5018272;28;20188;-63
2022/05/08 05:37:43;;;;;;;18.67;7.20;;;;;;;;;;5018253;28;20053;-63
2022/05/08 05:40:14;;;;;;;14.05;7.05;;;;;;;;;;5003083;28;20057;-63
2022/05/08 05:42:44;;;;;;;16.27;7.10;;;;;;;;;;5050578;28;20061;-63
2022/05/08 05:45:15;;;;;;;14.02;7.35;;;;;;;;;;5050943;28;20053;-63
2022/05/08 05:47:57;;;;;;;15.13;7.78;;;;;;;;;;5050930;28;20079;-62
2022/05/08 05:50:28;;;;;;;16.63;7.47;;;;;;;;;;5050835;28;20716;-63
2022/05/08 05:52:58;;;;;;;12.73;7.38;;;;;;;;;;5050553;28;20532;-62
2022/05/08 05:55:29;;;;;;;13.52;6.68;;;;;;;;;;5034013;28;20091;-63
2022/05/08 05:58:05;;;;;;;16.27;7.00;;;;;;;;;;5017259;28;20053;-63
2022/05/08 06:00:36;;;;;;;14.77;7.22;;;;;;;;;;5063717;28;20048;-62
2022/05/08 06:03:13;;;;;;;14.40;6.47;;;;;;;;;;5110924;28;20051;-62
2022/05/08 06:05:46;;;;;;;13.85;6.97;;;;;;;;;;5111120;28;20051;-62
2022/05/08 06:08:17;;;;;;;14.90;6.78;;;;;;;;;;5110994;28;20059;-62
2022/05/08 06:10:47;;;;;;;12.60;6.13;;;;;;;;;;5093988;28;20059;-63
2022/05/08 06:13:18;;;;;;;12.35;6.05;;;;;;;;;;5110287;28;20051;-62
2022/05/08 06:15:49;;;;;;;13.02;6.78;;;;;;;;;;5110929;28;20079;-63
2022/05/08 06:18:19;;;;;;;14.40;6.85;;;;;;;;;;5110727;28;20055;-62
2022/05/08 06:20:50;;;;;;;13.05;5.82;;;;;;;;;;5077534;28;20055;-63
2022/05/08 06:23:21;;;;;;;12.63;5.90;;;;;;;;;;5113184;28;20044;-62
2022/05/08 06:25:54;;;;;;;10.82;5.32;;;;;;;;;;5045205;28;20629;-62
2022/05/08 06:28:25;;;;;;;10.98;5.70;;;;;;;;;;5112972;28;20032;-63
2022/05/08 06:30:56;;;;;;;13.23;6.50;;;;;;;;;;5077171;28;20056;-63
2022/05/08 06:33:27;;;;;;;13.48;6.35;;;;;;;;;;5093620;28;20066;-63
2022/05/08 06:35:59;;;;;;;;;;;;;;;;;;5044618;28;20063;-63
2022/05/08 06:38:30;;;;;;;9.95;5.63;;;;;;;;;;5077119;28;19926;-62
2022/05/08 06:41:00;;;;;;;9.25;4.45;;;;;;;;;;5112954;28;20364;-63
2022/05/08 06:43:31;;;;;;;10.90;5.57;;;;;;;;;;5069201;28;20048;-62
2022/05/08 06:46:02;;;;;;;12.52;5.72;;;;;;;;;;5019737;28;20622;-63
2022/05/08 06:48:33;;;;;;;12.90;5.28;;;;;;;;;;5049415;28;20057;-63
2022/05/08 06:51:04;;;;;;;12.77;4.90;;;;;;;;;;5049668;28;20057;-63
2022/05/08 06:53:35;;;;;;;10.57;5.15;;;;;;;;;;5032855;28;20049;-63
2022/05/08 06:56:06;;;;;;;10.35;5.30;;;;;;;;;;5049484;28;20067;-63
2022/05/08 07:01:34;;;;;;;13.48;4.80;;;;;;;;;;5033106;28;20432;-63
2022/05/08 07:01:38;;;;;;;10.20;5.35;;;;;;;;;;5049341;28;20049;-63
2022/05/08 07:04:10;;;;;;;11.85;5.45;;;;;;;;;;5049294;28;20053;-63
2022/05/08 07:06:42;;;;;;;8.07;4.78;;;;;;;;;;5049111;28;20525;-62
2022/05/08 07:09:13;;;;;;;12.50;5.18;;;;;;;;;;5049319;28;20057;-63
2022/05/08 07:11:50;;;;;;;13.60;5.60;;;;;;;;;;5049109;28;20059;-63
2022/05/08 07:14:21;;;;;;;9.30;4.30;;;;;;;;;;5049299;28;20505;-63
2022/05/08 07:16:52;;;;;;;13.32;4.70;;;;;;;;;;5049058;28;20444;-63
2022/05/08 07:19:24;;;;;;;10.20;4.70;;;;;;;;;;5015860;28;20064;-63
2022/05/08 07:21:55;;;;;;;7.75;4.15;;;;;;;;;;5032256;28;20163;-63
2022/05/08 07:24:26;;;;;;;10.70;4.63;;;;;;;;;;5068918;28;20060;-63
2022/05/08 07:26:57;;;;;;;10.02;3.85;;;;;;;;;;5085905;28;20404;-63
2022/05/08 07:29:27;;;;;;;8.82;5.35;;;;;;;;;;5055852;28;20063;-63
2022/05/08 07:31:58;;;;;;;8.60;5.00;;;;;;;;;;5090110;28;20059;-63
2022/05/08 07:37:21;;;;;;;9.20;4.30;;;;;;;;;;5092555;28;20499;-63
2022/05/08 07:39:52;;;;;;;9.95;4.32;;;;;;;;;;5111760;28;20051;-63
2022/05/08 07:42:22;;;;;;;10.27;3.83;;;;;;;;;;5059233;28;20388;-62
2022/05/08 07:44:52;;;;;;;9.20;4.43;;;;;;;;;;5068628;28;20056;-63
2022/05/08 07:47:24;;;;;;;9.32;4.45;;;;;;;;;;5068532;28;20048;-63
2022/05/08 07:49:55;;;;;;;10.45;4.15;;;;;;;;;;5068616;28;20091;-63
2022/05/08 07:52:28;;;;;;;8.35;4.80;;;;;;;;;;5035385;28;20048;-62
2022/05/08 07:54:58;;;;;;;13.52;4.20;;;;;;;;;;5035525;28;20057;-63
2022/05/08 07:57:29;;;;;;;8.98;3.70;;;;;;;;;;5068609;28;20056;-63
2022/05/08 08:00:00;;;;;;;7.07;3.53;;;;;;;;;;5068557;28;20428;-63
2022/05/08 08:02:41;;;;;;;9.30;3.22;;;;;;;;;;5068393;28;20389;-63
2022/05/08 08:05:11;;;;;;;7.50;3.92;;;;;;;;;;5068704;28;20052;-63
2022/05/08 08:07:42;;;;;;;9.52;3.20;;;;;;;;;;5068592;28;20459;-63
2022/05/08 08:10:12;;;;;;;9.00;4.50;;;;;;;;;;4986558;28;20095;-62
2022/05/08 08:12:43;;;;;;;10.82;3.83;;;;;;;;;;5052214;28;20052;-62
2022/05/08 08:15:14;;;;;;;12.38;3.92;;;;;;;;;;5068354;28;20523;-63
2022/05/08 08:17:45;;;;;;;9.68;4.20;;;;;;;;;;5028390;28;20045;-62
2022/05/08 08:20:16;;;;;;;9.95;3.55;;;;;;;;;;5028666;28;20387;-63
2022/05/08 08:22:47;;;;;;;7.50;3.40;;;;;;;;;;5041086;28;20587;-63
2022/05/08 08:25:18;;;;;;;9.77;4.03;;;;;;;;;;5032093;28;20052;-63
2022/05/08 08:27:48;;;;;;;7.97;3.35;;;;;;;;;;5031916;28;20460;-62
2022/05/08 08:30:19;;;;;;;7.80;3.33;;;;;;;;;;5031643;28;20049;-63
2022/05/08 08:32:50;;;;;;;10.65;4.00;;;;;;;;;;5047990;28;20048;-63
2022/05/08 08:35:20;;;;;;;10.10;3.78;;;;;;;;;;5016970;28;20056;-62
2022/05/08 08:37:51;;;;;;;9.50;3.42;;;;;;;;;;5012246;28;21138;-62
2022/05/08 08:40:21;;;;;;;6.85;3.28;;;;;;;;;;5012462;28;20060;-62
2022/05/08 08:42:52;;;;;;;6.72;3.42;;;;;;;;;;4965143;28;20057;-62
2022/05/08 08:48:34;;;;;;;8.32;3.65;;;;;;;;;;5012103;28;20050;-63
2022/05/08 08:51:05;;;;;;;11.45;3.88;;;;;;;;;;5012270;28;20494;-62
2022/05/08 08:53:36;;;;;;;7.22;3.55;;;;;;;;;;5012457;28;20402;-63
2022/05/08 08:56:06;;;;;;;10.02;5.32;;;;;;;;;;4994551;28;20045;-63
2022/05/08 08:58:37;;;;;;;8.25;3.50;;;;;;;;;;5051852;28;20052;-63
2022/05/08 09:01:07;;;;;;;8.23;3.65;;;;;;;;;;5031373;28;20049;-63
2022/05/08 09:03:38;;;;;;;7.95;3.60;;;;;;;;;;5031770;28;20548;-62
2022/05/08 09:06:10;;;;;;;8.10;3.92;;;;;;;;;;5015424;28;20080;-62
2022/05/08 09:08:41;;;;;;;9.38;3.88;;;;;;;;;;5031465;28;20112;-63
2022/05/08 09:11:32;;;;;;;6.95;3.13;;;;;;;;;;5015850;28;20056;-63
2022/05/08 09:14:04;;;;;;;9.18;3.72;;;;;;;;;;5011749;28;20058;-62
2022/05/08 09:16:53;;;;;;;6.47;3.47;;;;;;;;;;5033777;28;20053;-62
2022/05/08 09:19:38;;;;;;;7.70;3.70;;;;;;;;;;4991914;28;20081;-62
2022/05/08 09:22:18;;;;;;;8.98;3.17;;;;;;;;;;4992125;28;20050;-63
2022/05/08 09:24:54;;;;;;;7.35;3.95;;;;;;;;;;4992061;28;20156;-63
2022/05/08 09:27:25;;;;;;;6.35;3.30;;;;;;;;;;4959751;28;20065;-63
2022/05/08 09:30:08;;;;;;;8.35;4.22;;;;;;;;;;4991865;28;20046;-62
2022/05/08 09:32:42;;;;;;;;;;;;;;;;;;4992476;28;20521;-63
2022/05/08 09:35:13;;;;;;;6.20;3.00;;;;;;;;;;4991857;28;19923;-63
2022/05/08 09:37:55;;;;;;;9.27;2.80;;;;;;;;;;4993432;28;20406;-63
2022/05/08 09:40:26;;;;;;;6.50;3.15;;;;;;;;;;4947333;28;20052;-63
2022/05/08 09:42:56;;;;;;;5.53;3.08;;;;;;;;;;4947305;28;20050;-62
2022/05/08 09:45:27;;;;;;;7.28;2.83;;;;;;;;;;5011044;28;20089;-63
2022/05/08 09:47:58;;;;;;;5.28;2.40;;;;;;;;;;5011349;28;20114;-63
2022/05/08 09:50:29;;;;;;;5.57;2.58;;;;;;;;;;4979289;28;20058;-63
2022/05/08 09:53:01;;;;;;;5.65;2.80;;;;;;;;;;4963435;28;20053;-63
2022/05/08 09:55:32;;;;;;;5.88;2.67;;;;;;;;;;4933026;29;20059;-63
2022/05/08 09:58:02;;;;;;;4.68;2.05;;;;;;;;;;4969575;28;20458;-63
2022/05/08 10:00:39;;;;;;;5.53;2.95;;;;;;;;;;4971948;28;20050;-63
2022/05/08 10:03:10;;;;;;;6.47;2.90;;;;;;;;;;4972077;28;20166;-63
2022/05/08 10:05:43;;;;;;;4.60;2.75;;;;;;;;;;4956187;28;20633;-63
2022/05/08 10:08:19;;;;;;;6.63;2.90;;;;;;;;;;4971981;28;20543;-63
2022/05/08 10:14:07;;;;;;;;;;;;;;;;;;4971820;28;20163;-63
2022/05/08 10:17:02;;;;;;;4.30;2.40;;;;;;;;;;5010236;28;19921;-63
2022/05/08 10:19:33;;;;;;;6.00;2.13;;;;;;;;;;5010571;28;20418;-63
2022/05/08 10:22:13;;;;;;;8.18;2.60;;;;;;;;;;5010413;28;20494;-63
2022/05/08 10:24:56;;;;;;;4.85;2.20;;;;;;;;;;5010531;28;20089;-63
2022/05/08 10:27:32;;;;;;;5.50;3.03;;;;;;;;;;5010260;28;20064;-63
2022/05/08 10:30:22;;;;;;;8.13;2.75;;;;;;;;;;5010316;28;20046;-63
2022/05/08 10:32:52;;;;;;;5.85;2.90;;;;;;;;;;5005179;28;20053;-63
2022/05/08 10:35:26;;;;;;;;;;;;;;;;;;5050145;28;20056;-63
2022/05/08 10:38:02;;;;;;;7.03;2.97;;;;;;;;;;5050012;28;19921;-63
2022/05/08 10:40:35;;;;;;;12.60;3.42;;;;;;;;;;5049650;28;20180;-63
2022/05/08 10:43:11;;;;;;;12.10;3.42;;;;;;;;;;5049761;28;20048;-63
2022/05/08 10:45:43;;;;;;;12.85;4.75;;;;;;;;;;5049689;28;20061;-63
2022/05/08 10:48:19;;;;;;;7.82;3.42;;;;;;;;;;5017471;28;20394;-63
2022/05/08 10:50:52;;;;;;;13.82;5.40;;;;;;;;;;5016392;28;20075;-63
2022/05/08 10:53:36;;;;;;;12.75;5.03;;;;;;;;;;5049824;28;20531;-63
2022/05/08 10:56:13;;;;;;;10.88;4.55;;;;;;;;;;5016579;28;20405;-64
2022/05/08 10:58:53;;;;;;;13.18;5.20;;;;;;;;;;5049082;28;20037;-63
2022/05/08 11:01:25;;;;;;;10.43;4.93;;;;;;;;;;5068110;28;20052;-63
2022/05/08 11:04:09;;;;;;;11.43;6.03;;;;;;;;;;5029431;28;20049;-63
2022/05/08 11:06:40;;;;;;;15.18;5.22;;;;;;;;;;5009618;28;20056;-63
2022/05/08 11:09:11;;;;;;;9.75;4.90;;;;;;;;;;4970414;28;20062;-63
2022/05/08 11:11:42;;;;;;;13.90;5.35;;;;;;;;;;4932004;29;20050;-63
2022/05/08 11:14:23;;;;;;;13.20;5.80;;;;;;;;;;4901319;29;20059;-63
2022/05/08 11:16:53;;;;;;;11.95;5.40;;;;;;;;;;4931876;29;20071;-63
2022/05/08 11:19:24;;;;;;;10.82;5.35;;;;;;;;;;4893956;29;20455;-64
2022/05/08 11:22:06;;;;;;;10.23;5.18;;;;;;;;;;4894083;29;20068;-63
2022/05/08 11:24:37;;;;;;;12.45;5.32;;;;;;;;;;4894119;29;20103;-63
2022/05/08 11:27:14;;;;;;;9.15;5.05;;;;;;;;;;4894104;29;20061;-63
2022/05/08 11:29:51;;;;;;;11.65;5.13;;;;;;;;;;4875078;29;20430;-63
2022/05/08 11:38:05;;;;;;;14.93;6.72;;;;;;;;;;4875222;29;20049;-63
2022/05/08 11:40:36;;;;;;;17.90;7.82;;;;;;;;;;4894488;29;20055;-63
2022/05/08 11:43:07;;;;;;;15.68;7.38;;;;;;;;;;4912731;29;20064;-63
2022/05/08 11:45:38;;;;;;;15.07;6.35;;;;;;;;;;4904436;28;20066;-63
2022/05/08 11:48:08;;;;;;;6.75;3.58;;;;;;;;;;4990234;28;20050;-63
2022/05/08 11:50:53;;;;;;;7.93;2.40;;;;;;;;;;4996182;28;20064;-64
2022/05/08 11:53:24;;;;;;;5.88;2.50;;;;;;;;;;5028903;28;20049;-64
2022/05/08 11:55:54;;;;;;;6.72;2.30;;;;;;;;;;5030895;28;20553;-63
2022/05/08 11:58:32;;;;;;;4.63;2.42;;;;;;;;;;5008687;28;20073;-63
2022/05/08 12:01:04;;;;;;;5.35;2.83;;;;;;;;;;5015890;28;20060;-63
2022/05/08 12:03:35;;;;;;;2.80;1.33;;;;;;;;;;5015266;28;20640;-63
2022/05/08 12:06:14;;;;;;;4.53;1.58;;;;;;;;;;5028613;28;20052;-63
2022/05/08 12:08:45;;;;;;;3.03;1.70;;;;;;;;;;4996445;28;20080;-63
2022/05/08 12:11:34;;;;;;;4.22;1.00;;;;;;;;;;5031869;28;20441;-63
2022/05/08 12:14:10;;;;;;;3.80;1.50;;;;;;;;;;4983734;28;20516;-64
2022/05/08 12:16:58;;;;;;;4.13;1.83;;;;;;;;;;5032532;28;20045;-63
2022/05/08 12:19:29;;;;;;;2.25;1.35;;;;;;;;;;5016348;28;20084;-64
2022/05/08 12:22:17;;;;;;;2.97;1.40;;;;;;;;;;5012650;28;20453;-63
2022/05/08 12:24:48;;;;;;;2.78;1.50;;;;;;;;;;4995967;28;20494;-63
2022/05/08 12:27:19;;;;;;;7.50;1.70;;;;;;;;;;5012851;28;20163;-63
2022/05/08 12:29:50;;;;;;;5.65;1.73;;;;;;;;;;5012358;28;20061;-63
2022/05/08 12:32:24;;;;;;;4.05;1.27;;;;;;;;;;5012645;28;20045;-64
2022/05/08 12:34:58;;;;;;;2.63;0.75;;;;;;;;;;5012428;28;20382;-63
2022/05/08 12:37:29;;;;;;;5.22;1.50;;;;;;;;;;5012680;28;20058;-63
2022/05/08 12:40:01;;;;;;;;;;;;;;;;;;5012816;28;20057;-63
2022/05/08 12:42:32;;;;;;;1.88;1.27;;;;;;;;;;5032639;28;19921;-63
2022/05/08 12:45:04;;;;;;;3.42;1.52;;;;;;;;;;5042033;28;20062;-63
2022/05/08 12:47:35;;;;;;;2.97;1.65;;;;;;;;;;5092303;28;20159;-63
2022/05/08 12:50:06;;;;;;;2.55;1.10;;;;;;;;;;5092001;28;20416;-63
2022/05/08 12:52:39;;;;;;;6.03;1.48;;;;;;;;;;5010778;28;20056;-64
2022/05/08 12:55:16;;;;;;;;;;;;;;;;;;5042489;28;20087;-64
2022/05/08 13:00:34;;;;;;;4.65;1.35;;;;;;;;;;5105600;28;20495;-64
2022/05/08 13:03:05;;;;;;;2.95;1.92;;;;;;;;;;5078841;28;20056;-65
2022/05/08 13:05:37;;;;;;;3.78;1.30;;;;;;;;;;5078481;28;20052;-64
2022/05/08 13:08:08;;;;;;;2.58;1.40;;;;;;;;;;5078462;28;20055;-65
2022/05/08 13:10:39;;;;;;;2.33;2.13;;;;;;;;;;5062115;28;20043;-65
2022/05/08 13:13:10;;;;;;;4.25;2.38;;;;;;;;;;5114565;28;20042;-63
2022/05/08 13:15:41;;;;;;;2.22;1.20;;;;;;;;;;5114320;28;20392;-63
2022/05/08 13:18:11;;;;;;;2.22;1.40;;;;;;;;;;5061530;28;20503;-63
2022/05/08 13:20:42;;;;;;;4.85;1.30;;;;;;;;;;5094910;28;20403;-64
2022/05/08 13:23:13;;;;;;;3.00;1.55;;;;;;;;;;5114372;28;20043;-63
2022/05/08 13:25:44;;;;;;;3.55;1.75;;;;;;;;;;5114191;28;20047;-63
2022/05/08 13:28:14;;;;;;;3.55;1.60;;;;;;;;;;5114307;28;20039;-63
2022/05/08 13:30:44;;;;;;;2.97;1.50;;;;;;;;;;5114258;28;20056;-64
2022/05/08 13:33:16;;;;;;;2.85;1.20;;;;;;;;;;5114106;28;20479;-65
2022/05/08 13:35:47;;;;;;;2.90;1.58;;;;;;;;;;5094840;28;20066;-64
2022/05/08 13:38:20;;;;;;;2.78;1.38;;;;;;;;;;5114025;28;20043;-64
2022/05/08 13:40:51;;;;;;;2.72;1.73;;;;;;;;;;5090933;28;20044;-63
2022/05/08 13:43:23;;;;;;;2.85;1.60;;;;;;;;;;5058003;28;20059;-64
2022/05/08 13:45:55;;;;;;;2.17;1.20;;;;;;;;;;5090946;28;20512;-63
2022/05/08 13:48:25;;;;;;;3.28;1.42;;;;;;;;;;5041181;28;20064;-63
2022/05/08 13:50:56;;;;;;;4.97;2.38;;;;;;;;;;5090877;28;20493;-64
2022/05/08 13:53:29;;;;;;;5.68;2.95;;;;;;;;;;5040403;28;20422;-64
2022/05/08 13:56:02;;;;;;;3.20;1.35;;;;;;;;;;5073766;28;20051;-63
2022/05/08 13:58:32;;;;;;;4.03;1.65;;;;;;;;;;5073876;28;20051;-63
2022/05/08 14:01:05;;;;;;;2.72;1.30;;;;;;;;;;5073779;28;20134;-63
2022/05/08 14:03:36;;;;;;;2.08;1.52;;;;;;;;;;5090889;28;20597;-64
2022/05/08 14:06:09;;;;;;;2.20;1.52;;;;;;;;;;5057073;28;20475;-63
2022/05/08 14:08:40;;;;;;;2.88;1.80;;;;;;;;;;5040725;28;20059;-65
2022/05/08 14:11:11;;;;;;;2.80;1.50;;;;;;;;;;5087457;28;20052;-64
2022/05/08 14:13:42;;;;;;;4.47;2.13;;;;;;;;;;5087470;28;20493;-64
2022/05/08 14:16:13;;;;;;;5.65;1.52;;;;;;;;;;5072703;28;20059;-64
2022/05/08 14:18:44;;;;;;;2.97;1.35;;;;;;;;;;5049749;28;20045;-64
2022/05/08 14:21:14;;;;;;;2.33;1.58;;;;;;;;;;5049951;28;20049;-64
2022/05/08 14:23:45;;;;;;;2.45;1.35;;;;;;;;;;5050184;28;20053;-64
2022/05/08 14:26:16;;;;;;;2.50;1.75;;;;;;;;;;5050308;28;20531;-64
2022/05/08 14:28:46;;;;;;;12.70;7.60;;;;;;;;;;5050102;28;20049;-64
2022/05/08 14:36:55;;;;;;;1.95;1.02;;;;;;;;;;5049759;28;20432;-64
2022/05/08 14:39:27;;;;;;;2.63;1.50;;;;;;;;;;5033623;28;20053;-64
2022/05/08 14:41:57;;;;;;;3.60;1.85;;;;;;;;;;5049859;28;20053;-64
2022/05/08 14:44:28;;;;;;;10.50;6.68;;;;;;;;;;5049642;28;20060;-64
2022/05/08 14:46:59;;;;;;;4.60;2.28;;;;;;;;;;5029604;28;20057;-64
2022/05/08 14:49:30;;;;;;;8.95;4.28;;;;;;;;;;5013333;28;20480;-63
2022/05/08 14:52:01;;;;;;;5.50;3.30;;;;;;;;;;5029719;28;20053;-64
2022/05/08 14:54:31;;;;;;;6.43;3.30;;;;;;;;;;4980774;28;20046;-63
2022/05/08 14:57:02;;;;;;;13.55;7.88;;;;;;;;;;5029298;28;20054;-64
2022/05/08 14:59:33;;;;;;;14.55;7.18;;;;;;;;;;4999803;28;20484;-63
2022/05/08 15:02:04;;;;;;;9.32;5.05;;;;;;;;;;5009800;28;20073;-64
2022/05/08 15:04:35;;;;;;;8.82;4.20;;;;;;;;;;5009687;28;20513;-64
2022/05/08 15:07:06;;;;;;;3.58;2.20;;;;;;;;;;5009744;28;20069;-64
2022/05/08 15:09:37;;;;;;;3.85;2.40;;;;;;;;;;5009774;28;20060;-64
2022/05/08 15:12:08;;;;;;;4.75;1.77;;;;;;;;;;5009870;28;20064;-64
2022/05/08 15:14:39;;;;;;;2.42;1.30;;;;;;;;;;5009589;28;20757;-63
2022/05/08 15:17:10;;;;;;;3.33;1.85;;;;;;;;;;5009505;28;20053;-64
2022/05/08 15:19:43;;;;;;;3.63;1.70;;;;;;;;;;5009504;28;20062;-64
2022/05/08 15:22:14;;;;;;;6.15;1.58;;;;;;;;;;5009748;28;20584;-64
2022/05/08 15:24:45;;;;;;;2.28;1.30;;;;;;;;;;5042629;28;20064;-64
2022/05/08 15:27:15;;;;;;;3.55;1.40;;;;;;;;;;5032308;28;20051;-64
2022/05/08 15:29:46;;;;;;;2.90;1.25;;;;;;;;;;5049230;28;20072;-64
2022/05/08 15:32:16;;;;;;;3.10;2.00;;;;;;;;;;5048830;28;20072;-64
2022/05/08 15:34:47;;;;;;;2.75;1.55;;;;;;;;;;5048948;28;20049;-64
2022/05/08 15:37:17;;;;;;;6.18;1.63;;;;;;;;;;5048940;28;20052;-64
2022/05/08 15:39:48;;;;;;;2.67;1.55;;;;;;;;;;5018136;28;20055;-64
2022/05/08 15:42:18;;;;;;;3.00;1.70;;;;;;;;;;5068512;28;20048;-64